createdAt,value
2023-03-27T00:01:30.643Z,9.20
2023-03-27T00:04:00.552Z,9.10
2023-03-27T00:06:30.078Z,9.10
2023-03-27T00:08:58.402Z,9.10
2023-03-27T00:11:28.140Z,9.10
2023-03-27T00:13:56.524Z,9.10
2023-03-27T00:16:27.635Z,9.10
2023-03-27T00:18:56.532Z,9.10
2023-03-27T00:21:25.902Z,9.20
2023-03-27T00:23:54.558Z,9.20
2023-03-27T00:26:23.150Z,9.20
2023-03-27T00:28:53.559Z,9.20
2023-03-27T00:31:21.936Z,9.20
2023-03-27T00:33:50.418Z,9.20
2023-03-27T00:36:18.810Z,9.20
2023-03-27T00:38:47.097Z,9.20
2023-03-27T00:41:15.776Z,9.20
2023-03-27T00:43:44.908Z,9.20
2023-03-27T00:46:38.991Z,9.10
2023-03-27T00:49:11.780Z,9.20
2023-03-27T00:51:43.669Z,9.20
2023-03-27T00:54:16.203Z,9.10
2023-03-27T00:56:46.273Z,9.10
2023-03-27T00:59:18.874Z,9.10
2023-03-27T01:01:49.473Z,9.10
2023-03-27T01:04:21.445Z,9.00
2023-03-27T01:06:52.699Z,9.00
2023-03-27T01:09:21.508Z,9.00
2023-03-27T01:12:03.059Z,9.00
2023-03-27T01:14:39.541Z,9.00
2023-03-27T01:17:22.453Z,8.90
2023-03-27T01:20:14.567Z,8.90
2023-03-27T01:23:59.646Z,8.90
2023-03-27T01:27:00.399Z,8.90
2023-03-27T01:29:41.258Z,8.90
2023-03-27T01:32:42.048Z,8.90
2023-03-27T01:35:27.473Z,8.90
2023-03-27T01:38:21.755Z,8.90
2023-03-27T01:40:57.920Z,8.90
2023-03-27T01:43:34.278Z,8.90
2023-03-27T01:46:08.173Z,8.90
2023-03-27T01:48:42.156Z,8.90
2023-03-27T01:51:15.286Z,8.90
2023-03-27T01:53:49.928Z,8.80
2023-03-27T01:56:26.668Z,8.80
2023-03-27T01:59:04.013Z,8.80
2023-03-27T02:01:37.607Z,8.70
2023-03-27T02:04:13.231Z,8.70
2023-03-27T02:06:45.823Z,8.70
2023-03-27T02:09:18.386Z,8.70
2023-03-27T02:11:54.003Z,8.70
2023-03-27T02:14:27.621Z,8.70
2023-03-27T02:16:59.623Z,8.60
2023-03-27T02:19:33.538Z,8.60
2023-03-27T02:22:02.275Z,8.60
2023-03-27T02:24:43.125Z,8.60
2023-03-27T02:27:20.520Z,8.60
2023-03-27T02:30:06.215Z,8.60
2023-03-27T02:32:47.068Z,8.60
2023-03-27T02:35:29.825Z,8.60
2023-03-27T02:38:06.505Z,8.60
2023-03-27T02:40:47.594Z,8.60
2023-03-27T02:43:42.148Z,8.60
2023-03-27T02:46:21.432Z,8.60
2023-03-27T02:48:53.072Z,8.60
2023-03-27T02:51:26.798Z,8.60
2023-03-27T02:53:59.128Z,8.50
2023-03-27T02:56:33.208Z,8.50
2023-03-27T02:59:06.620Z,8.50
2023-03-27T03:01:40.254Z,8.50
2023-03-27T03:04:12.334Z,8.50
2023-03-27T03:06:58.935Z,8.50
2023-03-27T03:09:31.053Z,8.50
2023-03-27T03:12:01.271Z,8.50
2023-03-27T03:14:35.960Z,8.50
2023-03-27T03:17:04.668Z,8.50
2023-03-27T03:19:33.085Z,8.50
2023-03-27T03:22:02.062Z,8.50
2023-03-27T03:24:34.588Z,8.40
2023-03-27T03:27:05.712Z,8.40
2023-03-27T03:29:44.366Z,8.30
2023-03-27T03:32:21.944Z,8.30
2023-03-27T03:34:53.016Z,8.20
2023-03-27T03:37:21.828Z,8.20
2023-03-27T03:39:50.634Z,8.10
2023-03-27T03:42:22.179Z,8.00
2023-03-27T03:44:54.590Z,8.00
2023-03-27T03:47:24.197Z,8.00
2023-03-27T03:49:52.483Z,8.00
2023-03-27T03:52:21.075Z,8.00
2023-03-27T03:54:49.758Z,8.00
2023-03-27T03:57:18.535Z,8.00
2023-03-27T04:00:02.343Z,8.00
2023-03-27T04:02:45.431Z,8.00
2023-03-27T04:05:16.697Z,7.90
2023-03-27T04:07:45.826Z,7.90
2023-03-27T04:10:32.805Z,7.90
2023-03-27T04:13:04.718Z,7.90
2023-03-27T04:15:39.072Z,7.90
2023-03-27T04:18:19.727Z,7.90
2023-03-27T04:20:49.738Z,7.90
2023-03-27T04:23:19.864Z,7.80
2023-03-27T04:25:48.470Z,7.80
2023-03-27T04:28:22.694Z,7.80
2023-03-27T04:31:06.497Z,7.70
2023-03-27T04:34:01.323Z,7.70
2023-03-27T04:36:51.415Z,7.70
2023-03-27T04:39:24.174Z,7.70
2023-03-27T04:41:53.904Z,7.70
2023-03-27T04:44:22.415Z,7.60
2023-03-27T04:46:52.786Z,7.60
2023-03-27T04:49:21.235Z,7.60
2023-03-27T04:51:56.633Z,7.60
2023-03-27T04:54:31.660Z,7.60
2023-03-27T04:57:01.932Z,7.60
2023-03-27T04:59:31.979Z,7.60
2023-03-27T05:02:23.231Z,7.60
2023-03-27T05:05:13.739Z,7.60
2023-03-27T05:07:46.003Z,7.60
2023-03-27T05:10:21.909Z,7.60
2023-03-27T05:12:54.197Z,7.50
2023-03-27T05:15:25.004Z,7.50
2023-03-27T05:17:57.055Z,7.50
2023-03-27T05:20:27.447Z,7.50
2023-03-27T05:22:57.280Z,7.50
2023-03-27T05:25:30.898Z,7.50
2023-03-27T05:28:01.125Z,7.50
2023-03-27T05:30:36.023Z,7.50
2023-03-27T05:33:26.846Z,7.50
2023-03-27T05:35:58.634Z,7.50
2023-03-27T05:38:28.065Z,7.40
2023-03-27T05:41:16.093Z,7.40
2023-03-27T05:43:50.091Z,7.30
2023-03-27T05:47:22.202Z,7.30
2023-03-27T05:50:50.096Z,7.30
2023-03-27T05:54:10.790Z,7.30
2023-03-27T05:57:48.586Z,7.20
2023-03-27T06:00:29.174Z,7.20
2023-03-27T06:03:20.817Z,7.20
2023-03-27T06:06:28.688Z,7.20
2023-03-27T06:09:29.854Z,7.10
2023-03-27T06:12:34.140Z,7.20
2023-03-27T06:15:48.541Z,7.10
2023-03-27T06:18:49.539Z,7.10
2023-03-27T06:24:27.825Z,7.10
2023-03-27T06:27:21.288Z,7.20
2023-03-27T06:30:37.789Z,7.20
2023-03-27T06:34:13.775Z,7.20
2023-03-27T06:37:41.400Z,7.20
2023-03-27T06:40:44.173Z,7.10
2023-03-27T06:43:53.888Z,7.20
2023-03-27T06:47:05.923Z,7.20
2023-03-27T06:50:00.808Z,7.20
2023-03-27T06:52:33.287Z,7.10
2023-03-27T06:55:16.053Z,7.10
2023-03-27T06:57:54.206Z,7.10
2023-03-27T07:00:26.490Z,7.20
2023-03-27T07:03:14.412Z,7.20
2023-03-27T07:06:02.281Z,7.20
2023-03-27T07:08:43.327Z,7.20
2023-03-27T07:11:12.582Z,7.20
2023-03-27T07:13:51.124Z,7.20
2023-03-27T07:16:26.898Z,7.30
2023-03-27T07:18:55.904Z,7.30
2023-03-27T07:21:26.952Z,7.30
2023-03-27T07:24:03.746Z,7.40
2023-03-27T07:26:35.009Z,7.50
2023-03-27T07:29:10.881Z,7.60
2023-03-27T07:34:20.985Z,8.10
2023-03-27T07:37:04.583Z,8.60
2023-03-27T07:39:36.584Z,9.20
2023-03-27T07:42:05.668Z,9.80
2023-03-27T07:44:47.430Z,10.40
2023-03-27T07:47:16.786Z,10.90
2023-03-27T07:49:47.160Z,11.50
2023-03-27T07:52:21.926Z,11.90
2023-03-27T07:55:00.862Z,12.40
2023-03-27T07:58:00.557Z,13.00
2023-03-27T08:00:32.602Z,13.60
2023-03-27T08:03:11.073Z,14.20
2023-03-27T08:05:44.775Z,14.60
2023-03-27T08:08:17.126Z,14.90
2023-03-27T08:11:03.563Z,15.40
2023-03-27T08:13:37.407Z,15.90
2023-03-27T08:16:10.658Z,16.30
2023-03-27T08:18:45.718Z,16.60
2023-03-27T08:21:15.934Z,16.90
2023-03-27T08:24:08.188Z,17.20
2023-03-27T08:26:58.942Z,17.50
2023-03-27T08:29:28.328Z,17.90
2023-03-27T08:31:57.262Z,18.20
2023-03-27T08:34:26.573Z,18.50
2023-03-27T08:36:56.461Z,18.90
2023-03-27T08:39:32.843Z,19.00
2023-03-27T08:42:17.810Z,19.30
2023-03-27T08:44:55.007Z,19.60
2023-03-27T08:47:41.756Z,19.50
2023-03-27T08:50:33.883Z,19.70
2023-03-27T08:53:18.564Z,20.00
2023-03-27T08:55:48.238Z,19.70
2023-03-27T08:58:28.347Z,20.10
2023-03-27T09:01:18.877Z,20.50
2023-03-27T09:03:58.659Z,20.70
2023-03-27T09:06:30.416Z,20.80
2023-03-27T09:09:08.730Z,21.10
2023-03-27T09:11:48.129Z,21.60
2023-03-27T09:14:31.177Z,21.70
2023-03-27T09:17:02.542Z,21.70
2023-03-27T09:19:42.372Z,21.60
2023-03-27T09:22:18.796Z,21.70
2023-03-27T09:25:02.606Z,22.10
2023-03-27T09:27:58.837Z,22.30
2023-03-27T09:30:42.410Z,22.50
2023-03-27T09:33:22.418Z,22.80
2023-03-27T09:35:51.214Z,23.20
2023-03-27T09:38:27.967Z,23.20
2023-03-27T09:41:00.220Z,23.30
2023-03-27T09:43:35.691Z,23.40
2023-03-27T09:46:07.510Z,23.20
2023-03-27T09:48:41.393Z,23.40
2023-03-27T09:51:38.233Z,23.70
2023-03-27T09:54:09.508Z,23.70
2023-03-27T09:56:41.214Z,23.60
2023-03-27T09:59:20.811Z,23.70
2023-03-27T10:01:52.021Z,23.70
2023-03-27T10:04:23.463Z,24.00
2023-03-27T10:07:05.675Z,24.10
2023-03-27T10:10:11.983Z,24.10
2023-03-27T10:13:03.503Z,24.30
2023-03-27T10:15:41.996Z,24.70
2023-03-27T10:18:28.462Z,25.10
2023-03-27T10:21:31.794Z,25.10
2023-03-27T10:24:04.242Z,24.90
2023-03-27T10:26:59.610Z,25.00
2023-03-27T10:29:32.298Z,25.20
2023-03-27T10:32:04.259Z,25.10
2023-03-27T10:34:51.919Z,25.20
2023-03-27T10:37:51.262Z,25.20
2023-03-27T10:40:59.312Z,25.00
2023-03-27T10:43:41.583Z,24.80
2023-03-27T10:46:13.744Z,24.60
2023-03-27T10:48:53.646Z,24.60
2023-03-27T10:51:46.039Z,24.70
2023-03-27T10:54:31.329Z,24.60
2023-03-27T10:57:03.720Z,24.70
2023-03-27T10:59:41.928Z,24.80
2023-03-27T11:02:25.305Z,24.70
2023-03-27T11:05:00.552Z,24.40
2023-03-27T11:07:34.117Z,24.70
2023-03-27T11:10:13.368Z,24.80
2023-03-27T11:12:46.776Z,24.80
2023-03-27T11:15:22.375Z,24.90
2023-03-27T11:17:58.800Z,24.80
2023-03-27T11:20:45.957Z,24.30
2023-03-27T11:23:40.420Z,23.40
2023-03-27T11:26:37.042Z,23.20
2023-03-27T11:29:09.600Z,22.80
2023-03-27T11:31:52.236Z,22.60
2023-03-27T11:34:49.465Z,22.00
2023-03-27T11:37:43.790Z,21.30
2023-03-27T11:40:21.036Z,21.50
2023-03-27T11:42:58.391Z,21.80
2023-03-27T11:45:37.772Z,22.30
2023-03-27T11:48:24.820Z,22.40
2023-03-27T11:51:00.782Z,22.10
2023-03-27T11:53:54.940Z,21.40
2023-03-27T11:56:54.493Z,21.40
2023-03-27T12:00:09.590Z,21.30
2023-03-27T12:03:15.594Z,21.00
2023-03-27T12:05:58.548Z,20.90
2023-03-27T12:08:53.013Z,20.50
2023-03-27T12:11:24.217Z,20.40
2023-03-27T12:14:23.899Z,20.40
2023-03-27T12:17:33.564Z,20.40
2023-03-27T12:20:53.812Z,20.40
2023-03-27T12:23:42.907Z,20.30
2023-03-27T12:26:50.900Z,20.00
2023-03-27T12:29:59.341Z,19.90
2023-03-27T12:32:56.314Z,20.10
2023-03-27T12:35:31.846Z,20.30
2023-03-27T12:38:03.604Z,20.50
2023-03-27T12:40:42.062Z,20.60
2023-03-27T12:43:29.904Z,20.50
2023-03-27T12:46:37.251Z,20.40
2023-03-27T12:50:07.218Z,20.20
2023-03-27T12:52:39.857Z,19.90
2023-03-27T12:55:33.810Z,19.50
2023-03-27T12:58:05.407Z,19.50
2023-03-27T13:01:11.130Z,19.40
2023-03-27T13:04:33.021Z,19.30
2023-03-27T13:07:11.192Z,19.20
2023-03-27T13:10:19.410Z,19.00
2023-03-27T13:13:06.127Z,18.80
2023-03-27T13:15:57.751Z,18.70
2023-03-27T13:18:57.181Z,18.60
2023-03-27T13:21:39.696Z,18.20
2023-03-27T13:24:27.418Z,18.10
2023-03-27T13:27:08.807Z,18.00
2023-03-27T13:29:41.532Z,17.90
2023-03-27T13:32:37.826Z,17.90
2023-03-27T13:35:40.784Z,17.90
2023-03-27T13:38:13.667Z,17.70
2023-03-27T13:41:42.459Z,17.70
2023-03-27T13:44:25.295Z,17.60
2023-03-27T13:46:59.946Z,17.60
2023-03-27T13:49:59.446Z,17.50
2023-03-27T13:52:55.950Z,17.50
2023-03-27T13:56:07.499Z,17.50
2023-03-27T13:59:45.896Z,17.40
2023-03-27T14:02:48.142Z,17.50
2023-03-27T14:05:49.450Z,17.40
2023-03-27T14:08:33.110Z,17.50
2023-03-27T14:11:38.246Z,17.60
2023-03-27T14:14:38.129Z,17.60
2023-03-27T14:17:29.834Z,17.50
2023-03-27T14:20:23.617Z,17.60
2023-03-27T14:23:00.716Z,17.60
2023-03-27T14:25:38.459Z,17.50
2023-03-27T14:28:34.787Z,17.40
2023-03-27T14:31:11.461Z,17.30
2023-03-27T14:34:03.127Z,17.20
2023-03-27T14:36:36.025Z,17.10
2023-03-27T14:39:17.197Z,17.10
2023-03-27T14:41:55.932Z,17.00
2023-03-27T14:44:26.098Z,16.90
2023-03-27T14:47:04.410Z,16.90
2023-03-27T14:49:37.364Z,16.90
2023-03-27T14:52:10.757Z,16.80
2023-03-27T14:55:06.953Z,16.90
2023-03-27T14:57:41.573Z,16.90
2023-03-27T15:00:17.066Z,16.90
2023-03-27T15:02:52.357Z,16.90
2023-03-27T15:05:23.233Z,16.90
2023-03-27T15:07:58.733Z,16.90
2023-03-27T15:10:59.345Z,16.90
2023-03-27T15:13:39.643Z,16.70
2023-03-27T15:16:19.386Z,16.60
2023-03-27T15:19:04.904Z,16.50
2023-03-27T15:21:45.254Z,16.40
2023-03-27T15:24:17.918Z,16.20
2023-03-27T15:26:49.381Z,16.20
2023-03-27T15:29:22.886Z,16.10
2023-03-27T15:31:53.052Z,16.00
2023-03-27T15:34:34.321Z,16.00
2023-03-27T15:37:05.823Z,15.90
2023-03-27T15:39:37.828Z,15.80
2023-03-27T15:42:08.876Z,15.70
2023-03-27T15:44:39.840Z,15.70
2023-03-27T15:47:25.832Z,15.70
2023-03-27T15:50:17.238Z,15.60
2023-03-27T15:52:50.549Z,15.60
2023-03-27T15:55:47.840Z,15.50
2023-03-27T15:58:22.308Z,15.50
2023-03-27T16:00:53.567Z,15.40
2023-03-27T16:03:25.144Z,15.30
2023-03-27T16:05:58.537Z,15.40
2023-03-27T16:08:32.649Z,15.30
2023-03-27T16:11:01.896Z,15.30
2023-03-27T16:13:35.684Z,15.30
2023-03-27T16:16:07.175Z,15.30
2023-03-27T16:18:38.198Z,15.30
2023-03-27T16:21:10.751Z,15.20
2023-03-27T16:23:39.398Z,15.10
2023-03-27T16:26:10.822Z,15.00
2023-03-27T16:28:39.522Z,15.00
2023-03-27T16:31:12.732Z,14.90
2023-03-27T16:33:43.536Z,14.90
2023-03-27T16:36:15.423Z,14.90
2023-03-27T16:38:44.770Z,14.80
2023-03-27T16:41:15.316Z,14.80
2023-03-27T16:43:44.986Z,14.80
2023-03-27T16:46:19.986Z,14.80
2023-03-27T16:48:48.737Z,14.70
2023-03-27T16:51:19.296Z,14.60
2023-03-27T16:53:48.180Z,14.60
2023-03-27T16:56:17.435Z,14.60
2023-03-27T16:58:46.470Z,14.50
2023-03-27T17:04:14.868Z,14.40
2023-03-27T17:06:51.634Z,14.40
2023-03-27T17:09:23.482Z,14.30
2023-03-27T17:11:52.373Z,14.30
2023-03-27T17:14:21.118Z,14.20
2023-03-27T17:17:14.731Z,14.20
2023-03-27T17:19:53.484Z,14.10
2023-03-27T17:22:24.099Z,14.10
2023-03-27T17:24:56.543Z,14.00
2023-03-27T17:27:27.306Z,14.00
2023-03-27T17:29:56.910Z,14.00
2023-03-27T17:32:26.200Z,13.90
2023-03-27T17:34:55.993Z,13.80
2023-03-27T17:37:27.488Z,13.80
2023-03-27T17:39:56.334Z,13.70
2023-03-27T17:42:25.324Z,13.60
2023-03-27T17:44:54.164Z,13.60
2023-03-27T17:47:22.921Z,13.50
2023-03-27T17:49:53.322Z,13.40
2023-03-27T17:52:23.548Z,13.40
2023-03-27T17:54:53.734Z,13.40
2023-03-27T17:57:23.035Z,13.40
2023-03-27T17:59:51.818Z,13.40
2023-03-27T18:02:22.763Z,13.30
2023-03-27T18:04:52.476Z,13.30
2023-03-27T18:07:21.891Z,13.20
